createdAt,value
2018-01-04T00:00:10.510Z,10.25
2018-01-04T00:02:36.976Z,7.97
2018-01-04T00:05:04.133Z,8.90
2018-01-04T00:07:30.544Z,5.60
2018-01-04T00:09:56.976Z,9.27
2018-01-04T00:12:23.416Z,7.20
2018-01-04T00:14:49.813Z,6.07
2018-01-04T00:17:16.228Z,4.18
2018-01-04T00:19:42.668Z,4.65
2018-01-04T00:22:09.136Z,5.87
2018-01-04T00:24:36.305Z,6.55
2018-01-04T00:27:03.444Z,4.53
2018-01-04T00:29:29.881Z,6.80
2018-01-04T00:31:56.290Z,5.72
2018-01-04T00:34:22.753Z,6.32
2018-01-04T00:36:49.918Z,6.87
2018-01-04T00:39:16.398Z,7.57
2018-01-04T00:41:42.816Z,10.30
2018-01-04T00:44:09.253Z,8.63
2018-01-04T00:46:35.692Z,8.98
2018-01-04T00:49:02.132Z,12.88
2018-01-04T00:51:28.581Z,11.77
2018-01-04T00:53:55.730Z,9.82
2018-01-04T00:56:22.185Z,9.80
2018-01-04T00:58:49.333Z,8.30
2018-01-04T01:01:15.781Z,10.93
2018-01-04T01:03:42.225Z,8.02
2018-01-04T01:06:08.634Z,11.70
2018-01-04T01:08:35.800Z,5.82
2018-01-04T01:11:02.209Z,8.93
2018-01-04T01:13:28.621Z,9.15
2018-01-04T01:15:55.068Z,7.62
2018-01-04T01:18:21.604Z,7.00
2018-01-04T01:20:48.006Z,8.82
2018-01-04T01:23:15.200Z,10.90
2018-01-04T01:25:42.360Z,11.12
2018-01-04T01:28:09.521Z,7.20
2018-01-04T01:30:35.981Z,15.07
2018-01-04T01:33:02.389Z,13.10
2018-01-04T01:35:28.876Z,8.40
2018-01-04T01:37:55.277Z,8.32
2018-01-04T01:40:21.692Z,12.23
2018-01-04T01:42:48.076Z,12.15
2018-01-04T01:45:15.221Z,12.10
2018-01-04T01:47:42.327Z,12.20
2018-01-04T01:50:08.753Z,15.45
2018-01-04T01:52:35.165Z,13.73
2018-01-04T01:55:02.336Z,12.05
2018-01-04T01:57:28.790Z,14.13
2018-01-04T01:59:55.198Z,16.70
2018-01-04T02:02:21.600Z,11.48
2018-01-04T02:04:48.041Z,9.23
2018-01-04T02:07:14.480Z,11.10
2018-01-04T02:09:41.653Z,10.40
2018-01-04T02:12:08.077Z,15.20
2018-01-04T02:14:34.496Z,12.02
2018-01-04T02:17:00.909Z,9.55
2018-01-04T02:19:39.668Z,9.48
2018-01-04T02:22:18.332Z,12.23
2018-01-04T02:24:57.013Z,9.77
2018-01-04T02:27:35.657Z,5.93
2018-01-04T02:30:15.018Z,5.85
2018-01-04T02:32:53.640Z,10.10
2018-01-04T02:35:35.181Z,4.20
2018-01-04T02:38:13.810Z,6.45
2018-01-04T02:40:52.496Z,5.97
2018-01-04T02:43:31.084Z,4.95
2018-01-04T02:46:07.509Z,2.62
2018-01-04T02:48:33.838Z,2.85
2018-01-04T02:51:00.158Z,2.85
2018-01-04T02:53:26.482Z,2.80
2018-01-04T02:55:52.785Z,4.72
2018-01-04T02:58:19.825Z,2.30
2018-01-04T03:00:46.897Z,4.90
2018-01-04T03:03:13.570Z,3.20
2018-01-04T03:05:39.892Z,1.40
2018-01-04T03:08:06.220Z,5.18
2018-01-04T03:10:32.564Z,2.08
2018-01-04T03:12:58.879Z,1.98
2018-01-04T03:15:25.204Z,2.30
2018-01-04T03:17:51.513Z,2.20
2018-01-04T03:20:17.840Z,2.05
2018-01-04T03:36:15.628Z,2.00
2018-01-04T03:38:48.057Z,3.62
2018-01-04T03:41:21.164Z,2.53
2018-01-04T03:43:53.456Z,3.28
2018-01-04T03:46:25.736Z,2.97
2018-01-04T03:48:58.092Z,1.20
2018-01-04T03:51:30.396Z,2.12
2018-01-04T04:07:27.252Z,2.35
2018-01-04T04:09:54.384Z,0.75
2018-01-04T04:12:20.716Z,1.00
2018-01-04T04:14:47.036Z,0.70
2018-01-04T04:17:13.365Z,2.42
2018-01-04T04:19:39.669Z,0.82
2018-01-04T04:22:06.000Z,0.60
2018-01-04T04:24:32.324Z,0.85
2018-01-04T04:26:58.643Z,0.82
2018-01-04T04:29:24.953Z,0.43
2018-01-04T04:31:52.028Z,1.12
2018-01-04T04:34:18.354Z,0.30
2018-01-04T04:36:44.693Z,0.40
2018-01-04T04:39:11.012Z,0.40
2018-01-04T04:41:37.331Z,0.60
2018-01-04T04:44:03.670Z,0.50
2018-01-04T04:46:30.029Z,0.77
2018-01-04T04:48:56.361Z,0.88
2018-01-04T04:51:22.673Z,0.40
2018-01-04T04:53:48.987Z,0.32
2018-01-04T04:56:15.306Z,0.47
2018-01-04T04:58:42.368Z,0.30
2018-01-04T05:01:08.672Z,1.08
2018-01-04T05:03:35.739Z,0.40
2018-01-04T05:06:02.073Z,0.40
2018-01-04T05:08:28.377Z,0.30
2018-01-04T05:10:55.435Z,0.50
2018-01-04T05:13:22.501Z,0.30
2018-01-04T05:15:48.820Z,0.32
2018-01-04T05:18:15.112Z,1.58
2018-01-04T05:20:41.448Z,0.30
2018-01-04T05:23:07.786Z,0.52
2018-01-04T05:25:34.849Z,0.30
2018-01-04T05:28:01.917Z,0.50
2018-01-04T05:30:28.218Z,0.57
2018-01-04T05:32:55.280Z,0.60
2018-01-04T05:35:22.328Z,0.47
2018-01-04T05:37:48.678Z,0.40
2018-01-04T05:40:14.997Z,0.60
2018-01-04T05:42:42.081Z,0.43
2018-01-04T05:45:08.394Z,0.95
2018-01-04T05:47:34.740Z,0.50
2018-01-04T05:50:01.085Z,0.30
2018-01-04T05:52:27.393Z,0.50
2018-01-04T05:54:53.736Z,0.32
2018-01-04T05:57:20.050Z,0.45
2018-01-04T05:59:46.369Z,0.50
2018-01-04T06:02:12.684Z,0.50
2018-01-04T06:04:39.013Z,0.82
2018-01-04T06:07:05.365Z,0.50
2018-01-04T06:09:31.649Z,1.05
2018-01-04T06:11:58.753Z,0.70
2018-01-04T06:14:25.094Z,0.52
2018-01-04T06:16:51.456Z,0.50
2018-01-04T06:19:18.548Z,0.62
2018-01-04T06:21:44.901Z,0.30
2018-01-04T06:24:11.236Z,0.50
2018-01-04T06:26:37.540Z,0.98
2018-01-04T06:29:03.894Z,2.83
2018-01-04T06:31:30.193Z,0.93
2018-01-04T06:33:56.526Z,1.15
2018-01-04T06:36:22.889Z,0.50
2018-01-04T06:38:49.197Z,0.85
2018-01-04T06:41:15.560Z,0.90
2018-01-04T06:43:41.895Z,1.40
2018-01-04T06:46:08.253Z,1.40
2018-01-04T06:48:35.304Z,0.62
2018-01-04T06:51:01.634Z,1.20
2018-01-04T06:53:28.698Z,1.00
2018-01-04T06:55:55.044Z,1.42
2018-01-04T06:58:21.365Z,0.77
2018-01-04T07:00:47.660Z,2.10
2018-01-04T07:03:13.989Z,1.80
2018-01-04T07:05:40.329Z,1.50
2018-01-04T07:08:06.652Z,2.20
2018-01-04T07:10:33.702Z,1.40
2018-01-04T07:13:00.745Z,0.70
2018-01-04T07:15:27.821Z,0.80
2018-01-04T07:17:54.144Z,0.95
2018-01-04T07:20:20.503Z,0.50
2018-01-04T07:22:46.792Z,0.60
2018-01-04T07:25:13.821Z,0.65
2018-01-04T07:27:40.152Z,1.20
2018-01-04T07:30:06.470Z,0.95
2018-01-04T07:32:32.800Z,0.88
2018-01-04T07:34:59.091Z,0.75
2018-01-04T07:37:25.437Z,0.80
2018-01-04T07:39:51.781Z,0.70
2018-01-04T07:42:18.224Z,0.50
2018-01-04T07:44:44.660Z,7.32
2018-01-04T07:47:11.117Z,1.00
2018-01-04T07:49:38.266Z,0.75
2018-01-04T07:52:05.397Z,1.70
2018-01-04T07:54:31.873Z,1.27
2018-01-04T07:56:58.380Z,2.17
2018-01-04T07:59:24.817Z,3.92
2018-01-04T08:01:51.981Z,0.95
2018-01-04T08:04:19.152Z,0.68
2018-01-04T08:06:45.568Z,0.50
2018-01-04T08:09:12.721Z,1.20
2018-01-04T08:11:39.194Z,0.80
2018-01-04T08:14:05.681Z,0.50
2018-01-04T08:16:32.121Z,0.70
2018-01-04T08:18:58.554Z,0.52
2018-01-04T08:21:24.993Z,0.90
2018-01-04T08:23:51.385Z,1.37
2018-01-04T08:26:17.813Z,0.70
2018-01-04T08:28:44.236Z,1.05
2018-01-04T08:31:10.694Z,0.60
2018-01-04T08:33:37.142Z,0.95
2018-01-04T08:36:03.582Z,0.80
2018-01-04T08:38:30.038Z,0.70
2018-01-04T08:40:56.488Z,1.12
2018-01-04T08:43:22.948Z,1.30
2018-01-04T08:45:50.160Z,0.90
2018-01-04T08:48:16.544Z,0.60
2018-01-04T08:50:42.972Z,0.77
2018-01-04T08:53:10.140Z,0.73
2018-01-04T08:55:37.309Z,0.50
2018-01-04T08:58:03.793Z,1.95
2018-01-04T09:00:30.217Z,0.77
2018-01-04T09:02:56.626Z,0.82
2018-01-04T09:05:23.049Z,0.77
2018-01-04T09:07:49.471Z,0.50
2018-01-04T09:10:15.887Z,1.00
2018-01-04T09:12:43.038Z,0.70
2018-01-04T09:15:10.226Z,1.10
2018-01-04T09:17:36.642Z,1.87
2018-01-04T09:20:03.038Z,0.65
2018-01-04T09:22:29.479Z,0.90
2018-01-04T09:24:56.665Z,0.65
2018-01-04T09:27:23.141Z,1.17
2018-01-04T09:29:49.573Z,0.90
2018-01-04T09:32:16.001Z,0.90
2018-01-04T09:34:42.431Z,0.75
2018-01-04T09:37:08.819Z,1.15
2018-01-04T09:39:35.284Z,1.75
2018-01-04T09:42:01.709Z,1.00
2018-01-04T09:44:28.992Z,2.80
2018-01-04T09:46:56.199Z,2.90
2018-01-04T09:49:22.611Z,1.50
2018-01-04T09:51:49.045Z,1.27
2018-01-04T09:54:15.459Z,0.80
2018-01-04T09:56:41.943Z,0.70
2018-01-04T09:59:08.365Z,0.77
2018-01-04T10:01:34.845Z,0.50
2018-01-04T10:04:01.248Z,1.48
2018-01-04T10:06:27.696Z,0.70
2018-01-04T10:08:54.149Z,1.35
2018-01-04T10:11:21.285Z,0.60
2018-01-04T10:13:48.789Z,0.60
2018-01-04T10:16:16.283Z,0.45
2018-01-04T10:18:42.684Z,0.70
2018-01-04T10:21:09.095Z,0.85
2018-01-04T10:23:36.270Z,0.77
2018-01-04T10:26:02.745Z,1.23
2018-01-04T10:28:29.166Z,1.30
2018-01-04T10:30:56.336Z,1.87
2018-01-04T10:33:23.761Z,0.60
2018-01-04T10:35:50.190Z,1.17
2018-01-04T10:38:16.597Z,1.05
2018-01-04T10:40:43.029Z,0.70
2018-01-04T10:43:09.435Z,0.62
2018-01-04T10:45:35.929Z,0.70
2018-01-04T10:48:02.372Z,1.02
2018-01-04T10:50:28.853Z,0.85
2018-01-04T10:52:55.312Z,0.40
2018-01-04T10:55:21.717Z,0.70
2018-01-04T10:57:48.256Z,0.80
2018-01-04T11:00:14.687Z,0.60
2018-01-04T11:02:41.870Z,0.70
2018-01-04T11:05:08.273Z,0.70
2018-01-04T11:07:34.782Z,0.60
2018-01-04T11:10:01.987Z,0.50
2018-01-04T11:12:28.390Z,0.45
2018-01-04T11:14:54.865Z,0.62
2018-01-04T11:17:21.276Z,0.60
2018-01-04T11:19:47.813Z,0.60
2018-01-04T11:22:14.380Z,0.30
2018-01-04T11:24:40.790Z,0.40
2018-01-04T11:27:07.309Z,0.50
2018-01-04T11:29:33.698Z,1.00
2018-01-04T11:32:00.896Z,1.08
2018-01-04T11:34:27.334Z,0.62
2018-01-04T11:36:53.809Z,0.60
2018-01-04T11:39:20.980Z,0.65
2018-01-04T11:41:48.147Z,1.05
2018-01-04T11:44:14.594Z,0.90
2018-01-04T11:46:41.018Z,1.48
2018-01-04T11:49:07.442Z,1.55
2018-01-04T11:51:33.901Z,1.30
2018-01-04T11:54:00.295Z,0.60
2018-01-04T11:56:27.595Z,0.90
2018-01-04T11:58:54.043Z,1.70
2018-01-04T12:01:21.349Z,1.42
2018-01-04T12:03:47.762Z,1.60
2018-01-04T12:06:14.223Z,1.73
2018-01-04T12:08:40.881Z,1.92
2018-01-04T12:11:07.313Z,1.17
2018-01-04T12:13:33.712Z,2.12
2018-01-04T12:16:00.152Z,3.20
2018-01-04T12:18:26.622Z,1.60
2018-01-04T12:20:53.069Z,2.85
2018-01-04T12:23:19.507Z,0.80
2018-01-04T12:25:46.721Z,0.90
2018-01-04T12:28:13.132Z,1.40
2018-01-04T12:30:39.586Z,0.80
2018-01-04T12:33:06.010Z,0.90
2018-01-04T12:35:32.436Z,1.05
2018-01-04T12:37:58.904Z,0.65
2018-01-04T12:40:25.332Z,0.90
2018-01-04T12:42:52.049Z,3.55
2018-01-04T12:45:18.473Z,3.08
2018-01-04T12:47:44.916Z,3.05
2018-01-04T12:50:11.358Z,1.23
2018-01-04T12:52:37.909Z,1.52
2018-01-04T12:55:05.144Z,0.98
2018-01-04T12:57:31.637Z,1.12
2018-01-04T12:59:58.062Z,1.20
2018-01-04T13:02:25.214Z,1.02
2018-01-04T13:04:51.700Z,0.75
2018-01-04T13:07:18.208Z,0.90
2018-01-04T13:09:44.624Z,1.00
2018-01-04T13:12:11.848Z,9.05
2018-01-04T13:14:38.316Z,1.20
2018-01-04T13:17:04.730Z,1.90
2018-01-04T13:19:31.934Z,1.80
2018-01-04T13:21:59.138Z,1.60
2018-01-04T13:24:26.356Z,1.90
2018-01-04T13:26:52.791Z,1.25
2018-01-04T13:29:19.205Z,2.72
2018-01-04T13:31:45.640Z,1.83
2018-01-04T13:34:12.083Z,2.00
2018-01-04T13:36:40.033Z,1.23
2018-01-04T13:39:06.454Z,2.20
2018-01-04T13:41:32.860Z,4.03
2018-01-04T13:44:00.047Z,1.65
2018-01-04T13:46:26.469Z,1.35
2018-01-04T13:48:53.040Z,1.10
2018-01-04T13:51:19.458Z,0.90
2018-01-04T13:53:45.906Z,1.00
2018-01-04T13:56:12.352Z,1.48
2018-01-04T13:58:38.974Z,1.25
2018-01-04T14:01:05.399Z,0.65
2018-01-04T14:03:31.840Z,1.02
2018-01-04T14:05:58.285Z,15.32
2018-01-04T14:08:24.696Z,1.80
2018-01-04T14:10:51.117Z,1.02
2018-01-04T14:13:17.606Z,1.25
2018-01-04T14:15:44.785Z,1.48
2018-01-04T14:18:11.240Z,1.50
2018-01-04T14:20:37.649Z,5.65
2018-01-04T14:23:04.049Z,4.05
2018-01-04T14:25:31.198Z,3.92
2018-01-04T14:27:58.396Z,1.00
2018-01-04T14:30:24.968Z,0.80
2018-01-04T14:32:51.394Z,1.12
2018-01-04T14:35:18.556Z,0.90
2018-01-04T14:37:44.994Z,0.80
2018-01-04T14:40:12.175Z,1.15
2018-01-04T14:42:38.620Z,0.43
2018-01-04T14:45:05.033Z,0.37
2018-01-04T14:47:32.238Z,0.30
2018-01-04T14:49:58.926Z,0.50
2018-01-04T14:52:25.346Z,0.80
2018-01-04T14:54:52.525Z,1.05
2018-01-04T14:57:19.017Z,0.65
2018-01-04T14:59:45.438Z,0.60
2018-01-04T15:02:11.912Z,0.37
2018-01-04T15:04:38.576Z,0.45
2018-01-04T15:07:04.995Z,0.55
2018-01-04T15:09:31.405Z,0.70
2018-01-04T15:11:57.885Z,0.20
2018-01-04T15:14:25.100Z,0.70
2018-01-04T15:16:51.532Z,0.40
2018-01-04T15:19:17.957Z,1.52
2018-01-04T15:21:44.380Z,0.68
2018-01-04T15:24:11.522Z,0.30
2018-01-04T15:26:37.991Z,0.47
2018-01-04T15:29:04.441Z,0.30
2018-01-04T15:31:30.908Z,0.98
2018-01-04T15:33:57.313Z,0.70
2018-01-04T15:36:23.750Z,1.60
2018-01-04T15:38:50.145Z,0.90
2018-01-04T15:41:16.595Z,0.50
2018-01-04T15:43:43.081Z,0.30
2018-01-04T15:46:10.237Z,0.50
2018-01-04T15:48:36.656Z,0.90
2018-01-04T15:51:03.861Z,0.50
2018-01-04T15:53:30.270Z,0.40
2018-01-04T15:55:56.758Z,0.73
2018-01-04T15:58:23.169Z,0.80
2018-01-04T16:00:49.689Z,1.00
2018-01-04T16:03:16.117Z,1.40
2018-01-04T16:05:42.681Z,1.60
2018-01-04T16:08:09.178Z,0.65
2018-01-04T16:10:35.620Z,0.40
2018-01-04T16:13:02.090Z,0.70
2018-01-04T16:15:28.530Z,0.68
2018-01-04T16:17:54.977Z,0.55
2018-01-04T16:20:21.380Z,2.80
2018-01-04T16:22:47.792Z,0.70
2018-01-04T16:25:14.238Z,10.13
2018-01-04T16:27:40.673Z,3.10
2018-01-04T16:30:07.200Z,1.27
2018-01-04T16:32:33.676Z,1.83
2018-01-04T16:35:00.195Z,1.48
2018-01-04T16:37:26.644Z,1.30
2018-01-04T16:39:53.097Z,1.42
2018-01-04T16:42:20.265Z,1.73
2018-01-04T16:44:46.685Z,0.90
2018-01-04T16:47:13.488Z,2.50
2018-01-04T16:49:39.957Z,0.82
2018-01-04T16:52:06.412Z,1.67
2018-01-04T16:54:32.860Z,0.60
2018-01-04T16:56:59.310Z,0.45
2018-01-04T16:59:25.777Z,2.37
2018-01-04T17:01:52.947Z,0.52
2018-01-04T17:04:19.373Z,1.10
2018-01-04T17:06:45.817Z,0.40
2018-01-04T17:09:12.233Z,0.60
2018-01-04T17:11:39.384Z,0.60
2018-01-04T17:14:06.568Z,1.37
2018-01-04T17:16:33.061Z,1.30
2018-01-04T17:19:00.286Z,0.90
2018-01-04T17:21:26.742Z,5.45
2018-01-04T17:23:53.231Z,1.85
2018-01-04T17:26:19.988Z,2.20
2018-01-04T17:28:46.429Z,2.40
2018-01-04T17:31:12.869Z,1.60
2018-01-04T17:33:39.332Z,3.62
2018-01-04T17:36:05.757Z,2.90
2018-01-04T17:38:32.225Z,1.17
2018-01-04T17:40:58.772Z,1.05
2018-01-04T17:43:25.270Z,0.60
2018-01-04T17:45:51.732Z,0.35
2018-01-04T17:48:18.173Z,0.20
2018-01-04T17:50:44.613Z,0.20
2018-01-04T17:53:11.053Z,0.40
2018-01-04T17:55:37.520Z,0.20
2018-01-04T17:58:04.734Z,0.30
2018-01-04T18:00:31.201Z,3.70
2018-01-04T18:02:58.369Z,2.90
2018-01-04T18:05:24.776Z,1.30
2018-01-04T18:07:52.009Z,3.33
2018-01-04T18:10:18.497Z,4.57
2018-01-04T18:12:45.020Z,1.75
2018-01-04T18:15:11.505Z,3.20
2018-01-04T18:17:37.981Z,1.70
2018-01-04T18:20:05.175Z,2.60
2018-01-04T18:22:31.778Z,2.10
2018-01-04T18:24:58.209Z,1.50
2018-01-04T18:27:25.387Z,2.55
2018-01-04T18:29:51.884Z,1.70
2018-01-04T18:32:19.060Z,0.98
2018-01-04T18:34:45.556Z,0.70
2018-01-04T18:37:12.001Z,0.50
2018-01-04T18:39:39.257Z,0.75
2018-01-04T18:42:06.473Z,0.30
2018-01-04T18:44:32.918Z,0.30
2018-01-04T18:47:00.122Z,0.50
2018-01-04T18:49:26.614Z,0.68
2018-01-04T18:51:53.839Z,0.60
2018-01-04T18:54:20.285Z,0.90
2018-01-04T18:56:46.882Z,0.60
2018-01-04T18:59:13.361Z,0.40
2018-01-04T19:01:39.792Z,0.50
2018-01-04T19:04:06.251Z,0.45
2018-01-04T19:06:32.705Z,0.40
2018-01-04T19:08:59.178Z,0.50
2018-01-04T19:11:25.595Z,0.40
2018-01-04T19:13:52.065Z,0.30
2018-01-04T19:16:18.542Z,0.55
2018-01-04T19:18:45.032Z,2.22
2018-01-04T19:21:11.458Z,0.40
2018-01-04T19:23:38.645Z,0.30
2018-01-04T19:26:05.078Z,2.03
2018-01-04T19:28:31.587Z,0.73
2018-01-04T19:30:58.005Z,20.83
2018-01-04T19:33:25.297Z,4.15
2018-01-04T19:35:51.733Z,9.15
2018-01-04T19:38:18.232Z,1.87
2018-01-04T19:40:44.703Z,4.87
2018-01-04T19:43:11.124Z,4.47
2018-01-04T19:45:38.426Z,1.90
2018-01-04T19:48:04.869Z,1.55
2018-01-04T19:50:31.312Z,0.60
2018-01-04T19:52:57.761Z,0.40
2018-01-04T19:55:24.953Z,0.60
2018-01-04T19:57:51.405Z,0.93
2018-01-04T20:00:17.875Z,1.02
2018-01-04T20:02:44.369Z,0.40
2018-01-04T20:05:10.824Z,1.10
2018-01-04T20:07:37.251Z,2.05
2018-01-04T20:10:05.182Z,1.30
2018-01-04T20:12:31.660Z,0.90
2018-01-04T20:14:58.105Z,1.00
2018-01-04T20:17:24.689Z,3.17
2018-01-04T20:19:51.865Z,2.10
2018-01-04T20:22:18.379Z,3.95
2018-01-04T20:24:44.818Z,3.10
2018-01-04T20:27:11.280Z,0.60
2018-01-04T20:29:37.704Z,0.73
2018-01-04T20:32:04.124Z,0.40
2018-01-04T20:34:30.572Z,0.57
2018-01-04T20:36:57.760Z,3.33
2018-01-04T20:39:24.957Z,0.30
2018-01-04T20:41:51.426Z,0.40
2018-01-04T20:44:17.901Z,0.50
2018-01-04T20:46:44.376Z,1.37
2018-01-04T20:49:10.864Z,0.43
2018-01-04T20:51:37.396Z,0.50
2018-01-04T20:54:03.864Z,0.40
2018-01-04T20:56:30.289Z,0.88
2018-01-04T20:58:56.752Z,0.43
2018-01-04T21:01:23.229Z,0.70
2018-01-04T21:03:49.680Z,1.20
2018-01-04T21:06:16.132Z,0.52
2018-01-04T21:08:43.327Z,1.25
2018-01-04T21:11:09.881Z,0.80
2018-01-04T21:13:36.305Z,0.60
2018-01-04T21:16:02.760Z,0.70
2018-01-04T21:18:29.168Z,0.50
2018-01-04T21:20:56.369Z,0.60
2018-01-04T21:23:22.757Z,0.82
2018-01-04T21:25:49.186Z,0.57
2018-01-04T21:28:16.414Z,0.47
2018-01-04T21:30:43.625Z,0.45
2018-01-04T21:33:10.068Z,0.85
2018-01-04T21:35:36.485Z,0.95
2018-01-04T21:38:03.084Z,2.45
2018-01-04T21:40:30.245Z,0.57
2018-01-04T21:42:56.689Z,0.80
2018-01-04T21:45:23.125Z,0.47
2018-01-04T21:47:49.573Z,2.15
2018-01-04T21:50:16.013Z,0.68
2018-01-04T21:52:42.449Z,1.20
2018-01-04T21:55:08.864Z,2.03
2018-01-04T21:57:35.318Z,0.98
2018-01-04T22:00:01.772Z,0.45
2018-01-04T22:02:29.001Z,0.40
2018-01-04T22:04:55.441Z,0.95
2018-01-04T22:07:21.852Z,1.65
2018-01-04T22:09:48.308Z,1.42
2018-01-04T22:12:15.556Z,0.57
2018-01-04T22:14:42.804Z,0.30
2018-01-04T22:17:10.005Z,0.77
2018-01-04T22:19:36.421Z,1.60
2018-01-04T22:22:03.610Z,3.42
2018-01-04T22:24:31.594Z,2.95
2018-01-04T22:26:58.052Z,3.08
2018-01-04T22:29:24.509Z,3.03
2018-01-04T22:31:50.936Z,1.35
2018-01-04T22:34:17.372Z,3.10
2018-01-04T22:36:43.893Z,3.03
2018-01-04T22:39:10.396Z,2.75
2018-01-04T22:41:36.870Z,4.15
2018-01-04T22:44:03.317Z,5.62
2018-01-04T22:46:30.523Z,3.30
2018-01-04T22:48:56.980Z,4.05
2018-01-04T22:51:23.465Z,4.07
2018-01-04T22:53:49.913Z,4.30
2018-01-04T22:56:16.331Z,3.62
2018-01-04T22:58:42.805Z,3.65
2018-01-04T23:01:09.293Z,1.98
2018-01-04T23:03:35.788Z,3.10
2018-01-04T23:06:02.331Z,6.37
2018-01-04T23:08:30.861Z,2.00
2018-01-04T23:10:57.275Z,3.10
2018-01-04T23:13:23.703Z,3.60
2018-01-04T23:15:50.134Z,5.75
2018-01-04T23:18:16.552Z,4.05
2018-01-04T23:20:43.021Z,3.90
2018-01-04T23:23:09.435Z,3.35
2018-01-04T23:25:35.880Z,5.20
2018-01-04T23:28:02.326Z,7.57
2018-01-04T23:30:28.758Z,4.68
2018-01-04T23:32:55.239Z,4.60
2018-01-04T23:35:22.390Z,5.78
2018-01-04T23:37:48.842Z,6.53
2018-01-04T23:40:15.998Z,8.70
2018-01-04T23:42:42.417Z,4.57
2018-01-04T23:45:09.569Z,7.75
2018-01-04T23:47:36.043Z,7.72
2018-01-04T23:50:02.452Z,7.03
2018-01-04T23:52:28.852Z,4.32
2018-01-04T23:54:55.264Z,6.05
2018-01-04T23:57:21.672Z,5.97
2018-01-04T23:59:48.104Z,7.62
